createdAt,value
2019-05-02T08:00:38.676Z,10.97
2019-05-02T08:01:38.617Z,11.05
2019-05-02T08:02:38.614Z,11.13
2019-05-02T08:03:38.593Z,11.16
2019-05-02T08:04:38.585Z,11.27
2019-05-02T08:05:38.585Z,11.48
2019-05-02T08:06:40.174Z,11.41
2019-05-02T08:07:39.577Z,11.56
2019-05-02T08:08:38.620Z,11.73
2019-05-02T08:09:39.153Z,11.70
2019-05-02T08:10:39.546Z,11.70
2019-05-02T08:11:38.682Z,11.77
2019-05-02T08:12:38.687Z,11.97
2019-05-02T08:13:38.487Z,12.14
2019-05-02T08:14:38.512Z,12.25
2019-05-02T08:15:38.485Z,12.26
2019-05-02T08:16:38.456Z,12.33
2019-05-02T08:17:38.449Z,12.43
2019-05-02T08:18:38.516Z,12.36
2019-05-02T08:19:41.857Z,12.38
2019-05-02T08:20:38.412Z,12.46
2019-05-02T08:21:38.458Z,12.50
2019-05-02T08:22:38.475Z,12.58
2019-05-02T08:23:38.380Z,12.58
2019-05-02T08:24:39.325Z,12.47
2019-05-02T08:25:41.522Z,12.17
2019-05-02T08:26:39.345Z,11.97
2019-05-02T08:27:38.333Z,12.00
2019-05-02T08:28:38.319Z,12.04
2019-05-02T08:29:38.319Z,12.18
2019-05-02T08:30:40.513Z,12.22
2019-05-02T08:31:38.304Z,12.29
2019-05-02T08:32:38.277Z,12.26
2019-05-02T08:33:38.262Z,12.36
2019-05-02T08:34:38.257Z,12.41
2019-05-02T08:35:38.249Z,12.40
2019-05-02T08:36:38.267Z,12.41
2019-05-02T08:37:41.237Z,12.50
2019-05-02T08:38:38.206Z,12.48
2019-05-02T08:39:38.198Z,12.11
2019-05-02T08:40:42.286Z,12.11
2019-05-02T08:41:39.204Z,12.10
2019-05-02T08:42:38.162Z,12.26
2019-05-02T08:43:43.253Z,12.38
2019-05-02T08:44:50.349Z,12.46
2019-05-02T08:45:39.639Z,12.65
2019-05-02T08:46:38.119Z,12.90
2019-05-02T08:47:38.142Z,12.87
2019-05-02T08:48:41.812Z,12.98
2019-05-02T08:49:39.087Z,12.95
2019-05-02T08:50:38.074Z,12.98
2019-05-02T08:51:38.086Z,12.98
2019-05-02T08:52:42.195Z,12.96
2019-05-02T08:53:38.073Z,12.98
2019-05-02T08:54:38.061Z,13.11
2019-05-02T08:55:41.236Z,13.14
2019-05-02T08:56:39.007Z,13.13
2019-05-02T08:57:37.999Z,13.14
2019-05-02T08:58:38.009Z,13.14
2019-05-02T08:59:40.722Z,13.39
2019-05-02T09:00:39.584Z,13.43
2019-05-02T09:01:37.955Z,13.55
2019-05-02T09:02:41.420Z,13.80
2019-05-02T09:03:54.842Z,13.85
2019-05-02T09:04:38.949Z,13.80
2019-05-02T09:05:45.626Z,13.83
2019-05-02T09:06:38.896Z,13.80
2019-05-02T09:07:39.374Z,13.80
2019-05-02T09:08:37.877Z,13.82
2019-05-02T09:09:37.871Z,13.93
2019-05-02T09:10:42.195Z,13.91
2019-05-02T09:11:38.840Z,14.01
2019-05-02T09:12:42.039Z,13.91
2019-05-02T09:13:38.815Z,13.93
2019-05-02T09:14:37.803Z,13.82
2019-05-02T09:15:40.256Z,13.60
2019-05-02T09:16:38.844Z,13.53
2019-05-02T09:17:38.835Z,13.58
2019-05-02T09:18:44.835Z,13.67
2019-05-02T09:19:38.750Z,13.85
2019-05-02T09:20:37.741Z,14.00
2019-05-02T09:21:37.735Z,14.15
2019-05-02T09:22:37.768Z,13.96
2019-05-02T09:23:37.711Z,13.93
2019-05-02T09:24:37.696Z,14.12
2019-05-02T09:25:37.690Z,14.13
2019-05-02T09:26:38.736Z,14.23
2019-05-02T09:27:37.667Z,14.46
2019-05-02T09:28:37.768Z,14.45
2019-05-02T09:29:44.429Z,14.44
2019-05-02T09:30:38.628Z,14.37
2019-05-02T09:31:42.238Z,14.31
2019-05-02T09:32:38.609Z,14.41
2019-05-02T09:33:45.233Z,14.28
2019-05-02T09:34:38.625Z,14.40
2019-05-02T09:35:37.591Z,14.36
2019-05-02T09:36:38.201Z,14.44
2019-05-02T09:37:37.552Z,14.56
2019-05-02T09:38:37.544Z,14.67
2019-05-02T09:39:37.534Z,14.85
2019-05-02T09:40:37.557Z,14.85
2019-05-02T09:41:37.529Z,14.82
2019-05-02T09:42:37.501Z,14.83
2019-05-02T09:43:39.066Z,14.89
2019-05-02T09:44:37.500Z,14.83
2019-05-02T09:45:39.501Z,14.82
2019-05-02T09:46:37.498Z,14.89
2019-05-02T09:47:53.201Z,14.74
2019-05-02T09:48:38.430Z,14.78
2019-05-02T09:49:43.547Z,14.78
2019-05-02T09:50:38.613Z,14.67
2019-05-02T09:51:37.399Z,14.59
2019-05-02T09:52:39.669Z,14.70
2019-05-02T09:53:37.378Z,14.83
2019-05-02T09:54:42.446Z,14.93
2019-05-02T09:55:42.366Z,14.85
2019-05-02T09:56:37.362Z,14.83
2019-05-02T09:57:37.341Z,14.73
2019-05-02T09:58:37.360Z,14.71
2019-05-02T09:59:37.314Z,14.61
2019-05-02T10:00:37.310Z,14.73
2019-05-02T10:01:37.291Z,14.87
2019-05-02T10:02:37.317Z,14.95
2019-05-02T10:03:37.276Z,14.95
2019-05-02T10:04:37.299Z,14.74
2019-05-02T10:05:37.246Z,14.82
2019-05-02T10:06:37.232Z,14.86
2019-05-02T10:07:37.221Z,14.79
2019-05-02T10:08:38.319Z,14.90
2019-05-02T10:09:38.259Z,14.97
2019-05-02T10:10:41.840Z,14.97
2019-05-02T10:11:38.178Z,14.95
2019-05-02T10:12:37.177Z,14.87
2019-05-02T10:13:37.164Z,14.82
2019-05-02T10:14:37.146Z,14.90
2019-05-02T10:15:37.194Z,15.04
2019-05-02T10:16:37.132Z,15.07
2019-05-02T10:17:37.536Z,15.04
2019-05-02T10:18:37.105Z,15.32
2019-05-02T10:19:41.141Z,15.27
2019-05-02T10:20:38.117Z,15.27
2019-05-02T10:21:37.099Z,15.22
2019-05-02T10:22:39.352Z,15.22
2019-05-02T10:23:37.051Z,15.25
2019-05-02T10:24:37.041Z,15.43
2019-05-02T10:25:38.990Z,15.54
2019-05-02T10:26:38.044Z,15.66
2019-05-02T10:27:38.508Z,15.68
2019-05-02T10:28:41.779Z,15.70
2019-05-02T10:29:37.984Z,15.81
2019-05-02T10:30:36.973Z,15.85
2019-05-02T10:31:37.814Z,15.87
2019-05-02T10:32:36.998Z,15.84
2019-05-02T10:33:37.672Z,15.99
2019-05-02T10:34:36.940Z,15.83
2019-05-02T10:35:40.582Z,15.76
2019-05-02T10:36:36.912Z,15.70
2019-05-02T10:37:38.193Z,15.87
2019-05-02T10:38:36.923Z,16.02
2019-05-02T10:39:37.958Z,16.17
2019-05-02T10:40:36.891Z,16.26
2019-05-02T10:41:39.644Z,16.16
2019-05-02T10:42:36.842Z,16.13
2019-05-02T10:43:36.833Z,16.34
2019-05-02T10:44:36.867Z,16.65
2019-05-02T10:45:36.812Z,16.77
2019-05-02T10:46:37.918Z,16.82
2019-05-02T10:47:36.788Z,16.83
2019-05-02T10:48:36.783Z,16.70
2019-05-02T10:49:36.767Z,16.62
2019-05-02T10:50:36.806Z,16.49
2019-05-02T10:51:41.755Z,16.39
2019-05-02T10:52:37.771Z,16.14
2019-05-02T10:53:36.731Z,16.25
2019-05-02T10:54:37.458Z,16.33
2019-05-02T10:55:36.702Z,16.44
2019-05-02T10:56:36.720Z,16.51
2019-05-02T10:57:36.699Z,16.57
2019-05-02T10:58:36.670Z,16.73
2019-05-02T10:59:36.696Z,16.90
2019-05-02T11:00:36.646Z,17.06
2019-05-02T11:01:36.637Z,17.01
2019-05-02T11:02:36.673Z,16.82
2019-05-02T11:03:38.003Z,16.64
2019-05-02T11:04:37.616Z,16.52
2019-05-02T11:05:37.410Z,16.43
2019-05-02T11:06:37.143Z,16.61
2019-05-02T11:07:37.623Z,16.65
2019-05-02T11:08:40.958Z,16.67
2019-05-02T11:09:37.551Z,16.88
2019-05-02T11:10:36.537Z,16.88
2019-05-02T11:11:36.561Z,16.84
2019-05-02T11:12:44.514Z,16.84
2019-05-02T11:13:37.544Z,17.01
2019-05-02T11:14:36.499Z,17.24
2019-05-02T11:15:36.483Z,17.37
2019-05-02T11:16:36.471Z,17.13
2019-05-02T11:17:36.681Z,17.39
2019-05-02T11:18:41.885Z,17.75
2019-05-02T11:19:37.499Z,17.73
2019-05-02T11:20:36.428Z,17.52
2019-05-02T11:21:36.424Z,17.65
2019-05-02T11:22:36.410Z,17.75
2019-05-02T11:23:36.426Z,17.34
2019-05-02T11:24:36.434Z,17.45
2019-05-02T11:25:36.432Z,17.57
2019-05-02T11:26:36.395Z,17.66
2019-05-02T11:27:36.354Z,17.84
2019-05-02T11:28:36.355Z,17.75
2019-05-02T11:29:36.346Z,17.56
2019-05-02T11:30:36.324Z,17.34
2019-05-02T11:31:36.351Z,17.41
2019-05-02T11:32:36.410Z,17.45
2019-05-02T11:33:36.291Z,17.65
2019-05-02T11:34:36.279Z,17.86
2019-05-02T11:35:36.277Z,17.88
2019-05-02T11:36:36.256Z,17.86
2019-05-02T11:37:36.296Z,18.02
2019-05-02T11:38:36.918Z,18.06
2019-05-02T11:39:45.377Z,18.02
2019-05-02T11:40:37.247Z,17.91
2019-05-02T11:41:36.204Z,17.62
2019-05-02T11:42:36.198Z,17.76
2019-05-02T11:43:37.249Z,17.91
2019-05-02T11:44:37.169Z,18.01
2019-05-02T11:45:36.167Z,18.02
2019-05-02T11:46:37.497Z,18.23
2019-05-02T11:47:37.137Z,17.96
2019-05-02T11:48:36.128Z,17.96
2019-05-02T11:49:36.161Z,18.06
2019-05-02T11:50:36.107Z,17.96
2019-05-02T11:51:36.091Z,17.99
2019-05-02T11:52:37.564Z,18.34
2019-05-02T11:53:36.070Z,18.51
2019-05-02T11:54:39.318Z,18.60
2019-05-02T11:55:37.100Z,18.67
2019-05-02T11:56:36.042Z,18.60
2019-05-02T11:57:36.029Z,18.81
2019-05-02T11:58:41.806Z,18.34
2019-05-02T11:59:37.004Z,18.56
2019-05-02T12:00:39.727Z,18.85
2019-05-02T12:01:39.796Z,19.01
2019-05-02T12:02:35.984Z,19.07
2019-05-02T12:03:37.086Z,19.26
2019-05-02T12:04:35.974Z,19.60
2019-05-02T12:05:39.048Z,19.54
2019-05-02T12:06:35.932Z,19.56
2019-05-02T12:07:35.955Z,19.74
2019-05-02T12:08:39.345Z,20.05
2019-05-02T12:09:36.905Z,20.48
2019-05-02T12:10:36.758Z,20.08
2019-05-02T12:11:35.909Z,20.07
2019-05-02T12:12:36.371Z,19.86
2019-05-02T12:13:35.899Z,19.53
2019-05-02T12:14:36.506Z,20.12
2019-05-02T12:15:35.846Z,20.08
2019-05-02T12:16:35.833Z,20.19
2019-05-02T12:17:35.821Z,19.99
2019-05-02T12:18:35.865Z,19.67
2019-05-02T12:19:35.838Z,19.71
2019-05-02T12:20:36.807Z,19.12
2019-05-02T12:21:35.779Z,19.32
2019-05-02T12:22:35.775Z,19.56
2019-05-02T12:23:36.425Z,19.86
2019-05-02T12:24:36.464Z,19.60
2019-05-02T12:25:35.922Z,19.45
2019-05-02T12:26:35.723Z,19.42
2019-05-02T12:27:35.727Z,19.22
2019-05-02T12:28:35.699Z,18.83
2019-05-02T12:29:35.695Z,18.71
2019-05-02T12:30:37.724Z,18.74
2019-05-02T12:31:35.717Z,18.89
2019-05-02T12:32:35.673Z,19.13
2019-05-02T12:33:35.668Z,19.16
2019-05-02T12:34:35.636Z,19.16
2019-05-02T12:35:35.875Z,19.30
2019-05-02T12:36:35.881Z,19.45
2019-05-02T12:37:35.647Z,19.53
2019-05-02T12:38:35.600Z,19.49
2019-05-02T12:39:35.588Z,19.52
2019-05-02T12:40:35.597Z,19.63
2019-05-02T12:41:35.571Z,19.84
2019-05-02T12:42:35.812Z,19.94
2019-05-02T12:43:35.591Z,19.71
2019-05-02T12:44:35.531Z,19.67
2019-05-02T12:45:35.522Z,19.99
2019-05-02T12:46:35.539Z,20.00
2019-05-02T12:47:35.502Z,19.78
2019-05-02T12:48:35.505Z,19.59
2019-05-02T12:49:35.528Z,19.35
2019-05-02T12:50:35.481Z,19.20
2019-05-02T12:51:35.467Z,19.22
2019-05-02T12:52:35.452Z,19.04
2019-05-02T12:53:35.443Z,18.61
2019-05-02T12:54:35.448Z,18.71
2019-05-02T12:55:35.481Z,18.89
2019-05-02T12:56:36.385Z,18.93
2019-05-02T12:57:35.398Z,18.78
2019-05-02T12:58:35.382Z,18.75
2019-05-02T12:59:35.373Z,18.76
2019-05-02T13:00:35.422Z,18.52
2019-05-02T13:01:35.390Z,18.23
2019-05-02T13:02:35.349Z,18.60
2019-05-02T13:03:35.330Z,18.52
2019-05-02T13:04:35.370Z,18.67
2019-05-02T13:05:35.306Z,18.56
2019-05-02T13:06:37.115Z,18.75
2019-05-02T13:07:35.353Z,18.85
2019-05-02T13:08:35.286Z,18.98
2019-05-02T13:09:35.265Z,19.13
2019-05-02T13:10:35.254Z,19.23
2019-05-02T13:11:36.829Z,19.34
2019-05-02T13:12:36.331Z,19.27
2019-05-02T13:13:35.219Z,19.20
2019-05-02T13:14:35.207Z,19.09
2019-05-02T13:15:35.203Z,19.12
2019-05-02T13:16:35.182Z,19.13
2019-05-02T13:17:42.819Z,19.05
2019-05-02T13:18:37.225Z,19.16
2019-05-02T13:19:39.894Z,19.13
2019-05-02T13:20:38.296Z,19.16
2019-05-02T13:21:42.223Z,19.22
2019-05-02T13:22:36.182Z,19.22
2019-05-02T13:23:37.162Z,19.47
2019-05-02T13:24:35.177Z,19.53
2019-05-02T13:25:36.871Z,19.63
2019-05-02T13:26:35.076Z,19.16
2019-05-02T13:27:43.274Z,19.30
2019-05-02T13:28:36.084Z,19.38
2019-05-02T13:29:35.041Z,19.72
2019-05-02T13:30:42.797Z,19.79
2019-05-02T13:31:36.027Z,20.05
2019-05-02T13:32:35.007Z,20.15
2019-05-02T13:33:35.954Z,20.12
2019-05-02T13:34:34.987Z,20.14
2019-05-02T13:35:34.975Z,20.44
2019-05-02T13:36:35.005Z,20.67
2019-05-02T13:37:35.086Z,20.90
2019-05-02T13:38:34.955Z,20.85
2019-05-02T13:39:34.935Z,20.83
2019-05-02T13:40:34.928Z,20.83
2019-05-02T13:41:34.944Z,20.77
2019-05-02T13:42:34.943Z,21.19
2019-05-02T13:43:34.894Z,21.45
2019-05-02T13:44:34.881Z,21.43
2019-05-02T13:45:34.896Z,21.23
2019-05-02T13:46:34.863Z,21.56
2019-05-02T13:47:34.852Z,21.67
2019-05-02T13:48:34.982Z,21.62
2019-05-02T13:49:34.833Z,21.66
2019-05-02T13:50:34.817Z,21.45
2019-05-02T13:51:36.550Z,21.19
2019-05-02T13:52:34.805Z,20.89
2019-05-02T13:53:34.788Z,20.74
2019-05-02T13:54:34.810Z,20.98
2019-05-02T13:55:34.767Z,21.10
2019-05-02T13:56:34.755Z,21.07
2019-05-02T13:57:41.733Z,21.05
2019-05-02T13:58:35.755Z,21.04
2019-05-02T13:59:34.731Z,21.10
2019-05-02T14:00:34.751Z,21.30
2019-05-02T14:01:34.703Z,21.38
2019-05-02T14:02:34.693Z,21.41
2019-05-02T14:03:34.683Z,21.55
2019-05-02T14:04:34.700Z,21.37
2019-05-02T14:05:34.662Z,21.14
2019-05-02T14:06:37.984Z,21.10
2019-05-02T14:07:34.650Z,21.32
2019-05-02T14:08:36.876Z,21.38
2019-05-02T14:09:34.626Z,20.86
2019-05-02T14:10:39.240Z,21.32
2019-05-02T14:11:35.663Z,21.55
2019-05-02T14:12:34.591Z,21.48
2019-05-02T14:13:34.583Z,21.34
2019-05-02T14:14:34.600Z,21.05
2019-05-02T14:15:34.576Z,21.00
2019-05-02T14:16:34.555Z,21.04
2019-05-02T14:17:34.601Z,20.95
2019-05-02T14:18:34.534Z,20.74
2019-05-02T14:19:34.524Z,20.32
2019-05-02T14:20:37.263Z,20.15
2019-05-02T14:21:34.506Z,20.46
2019-05-02T14:22:34.516Z,20.71
2019-05-02T14:23:34.523Z,20.65
2019-05-02T14:24:34.468Z,20.75
2019-05-02T14:25:34.463Z,20.55
2019-05-02T14:26:34.455Z,20.09
2019-05-02T14:27:34.443Z,19.44
2019-05-02T14:28:36.432Z,19.16
2019-05-02T14:29:34.488Z,19.16
2019-05-02T14:30:39.358Z,18.89
2019-05-02T14:31:35.394Z,18.98
2019-05-02T14:32:34.423Z,18.97
2019-05-02T14:33:34.379Z,18.88
2019-05-02T14:34:34.368Z,18.70
2019-05-02T14:35:36.295Z,18.70
2019-05-02T14:36:34.356Z,18.86
2019-05-02T14:37:34.338Z,18.75
2019-05-02T14:38:34.322Z,18.93
2019-05-02T14:39:34.315Z,19.12
2019-05-02T14:40:34.304Z,19.07
2019-05-02T14:41:40.900Z,18.96
2019-05-02T14:42:35.301Z,19.09
2019-05-02T14:43:38.257Z,19.32
2019-05-02T14:45:01.373Z,19.50
2019-05-02T14:45:35.272Z,19.99
2019-05-02T14:46:39.323Z,20.42
2019-05-02T14:47:35.309Z,20.55
2019-05-02T14:48:41.082Z,20.92
2019-05-02T14:49:35.388Z,20.86
2019-05-02T14:50:36.573Z,20.37
2019-05-02T14:51:36.740Z,20.07
2019-05-02T14:52:37.150Z,19.93
2019-05-02T14:53:35.931Z,19.92
2019-05-02T14:54:38.035Z,19.68
2019-05-02T14:55:35.139Z,19.68
2019-05-02T14:56:37.717Z,19.56
2019-05-02T14:57:35.139Z,19.37
2019-05-02T14:58:37.723Z,19.20
2019-05-02T14:59:34.141Z,18.93
2019-05-02T15:00:39.433Z,18.88
2019-05-02T15:01:35.090Z,18.70
2019-05-02T15:02:34.610Z,18.67
2019-05-02T15:03:34.069Z,18.45
2019-05-02T15:04:38.320Z,18.42
2019-05-02T15:05:35.057Z,18.09
2019-05-02T15:06:38.420Z,18.09
2019-05-02T15:07:35.010Z,17.90
2019-05-02T15:08:36.727Z,17.84
2019-05-02T15:09:36.316Z,17.84
2019-05-02T15:10:38.806Z,17.81
2019-05-02T15:11:35.152Z,17.93
2019-05-02T15:12:33.954Z,17.91
2019-05-02T15:13:40.115Z,18.05
2019-05-02T15:14:34.945Z,18.03
2019-05-02T15:15:40.664Z,17.87
2019-05-02T15:16:42.287Z,17.76
2019-05-02T15:17:37.809Z,17.65
2019-05-02T15:18:33.890Z,17.54
2019-05-02T15:19:33.878Z,17.56
2019-05-02T15:20:39.247Z,17.59
2019-05-02T15:21:35.019Z,17.46
2019-05-02T15:22:37.410Z,17.32
2019-05-02T15:23:33.866Z,17.31
2019-05-02T15:24:37.433Z,17.30
2019-05-02T15:25:33.816Z,17.13
2019-05-02T15:26:35.621Z,17.19
2019-05-02T15:27:42.277Z,16.98
2019-05-02T15:28:37.378Z,16.84
2019-05-02T15:29:33.767Z,16.65
2019-05-02T15:30:37.250Z,16.32
2019-05-02T15:31:34.745Z,15.84
2019-05-02T15:32:37.278Z,15.43
2019-05-02T15:33:34.728Z,15.14
2019-05-02T15:34:35.567Z,14.87
2019-05-02T15:35:35.968Z,14.69
2019-05-02T15:36:37.062Z,14.49
2019-05-02T15:37:35.954Z,14.41
2019-05-02T15:38:37.279Z,14.15
2019-05-02T15:40:43.485Z,14.12
2019-05-02T15:41:34.636Z,13.96
2019-05-02T15:42:33.655Z,13.64
2019-05-02T15:43:33.618Z,13.57
2019-05-02T15:44:33.611Z,13.38
2019-05-02T15:45:36.817Z,13.19
2019-05-02T15:46:34.582Z,13.08
2019-05-02T15:47:36.969Z,13.05
2019-05-02T15:48:34.577Z,12.93
2019-05-02T15:49:36.681Z,12.91
2019-05-02T15:50:34.592Z,12.90
2019-05-02T15:51:33.538Z,12.88
2019-05-02T15:52:33.515Z,12.86
2019-05-02T15:53:33.507Z,12.73
2019-05-02T15:54:33.497Z,12.69
2019-05-02T15:55:39.562Z,12.65
2019-05-02T15:56:35.658Z,12.63
2019-05-02T15:57:42.807Z,12.55
2019-05-02T15:58:34.449Z,12.50
2019-05-02T15:59:37.690Z,12.51
2019-05-02T16:00:34.433Z,12.36
2019-05-02T16:01:36.602Z,12.46
2019-05-02T16:02:34.500Z,12.44
2019-05-02T16:03:34.390Z,12.40
2019-05-02T16:04:34.386Z,12.40
2019-05-02T16:05:36.512Z,12.35
2019-05-02T16:06:34.382Z,12.35
2019-05-02T16:07:33.351Z,12.32
2019-05-02T16:08:33.476Z,12.28
2019-05-02T16:09:33.334Z,12.25
2019-05-02T16:10:38.471Z,12.26
2019-05-02T16:11:34.320Z,12.25
2019-05-02T16:12:36.066Z,12.23
2019-05-02T16:13:33.293Z,12.25
2019-05-02T16:14:35.938Z,12.22
2019-05-02T16:15:33.295Z,12.23
2019-05-02T16:16:36.572Z,12.25
2019-05-02T16:17:34.244Z,12.26
2019-05-02T16:18:36.011Z,12.21
2019-05-02T16:19:34.258Z,12.11
2019-05-02T16:20:33.210Z,12.03
2019-05-02T16:21:33.206Z,12.13
2019-05-02T16:22:33.189Z,11.95
2019-05-02T16:23:35.644Z,11.96
2019-05-02T16:24:33.220Z,11.93
2019-05-02T16:25:34.080Z,11.84
2019-05-02T16:26:35.276Z,11.79
2019-05-02T16:27:34.145Z,11.82
2019-05-02T16:28:36.828Z,11.77
2019-05-02T16:29:34.159Z,11.84
2019-05-02T16:30:36.995Z,11.77
2019-05-02T16:31:34.134Z,11.69
2019-05-02T16:32:35.681Z,11.69
2019-05-02T16:33:33.069Z,11.70
2019-05-02T16:34:35.309Z,11.59
2019-05-02T16:35:33.091Z,11.56
2019-05-02T16:36:37.409Z,11.55
2019-05-02T16:37:33.067Z,11.51
2019-05-02T16:38:34.955Z,11.58
2019-05-02T16:39:33.001Z,11.56
2019-05-02T16:40:34.918Z,11.51
2019-05-02T16:41:32.981Z,11.51
2019-05-02T16:42:32.969Z,11.48
2019-05-02T16:43:33.012Z,11.49
2019-05-02T16:44:32.982Z,11.34
2019-05-02T16:45:32.946Z,11.36
2019-05-02T16:46:32.999Z,11.33
2019-05-02T16:47:32.982Z,11.34
2019-05-02T16:48:37.622Z,11.23
2019-05-02T16:49:34.010Z,11.34
2019-05-02T16:50:36.663Z,11.28
2019-05-02T16:51:34.603Z,11.36
2019-05-02T16:52:32.859Z,11.27
2019-05-02T16:53:33.395Z,11.22
2019-05-02T16:54:34.548Z,11.19
2019-05-02T16:55:33.883Z,11.33
2019-05-02T16:56:36.928Z,11.34
2019-05-02T16:57:35.141Z,11.19
2019-05-02T16:58:33.703Z,11.33
2019-05-02T16:59:34.436Z,11.23
2019-05-02T17:00:37.056Z,11.19
2019-05-02T17:01:33.865Z,11.27
2019-05-02T17:02:32.759Z,11.27
2019-05-02T17:03:32.750Z,11.22
2019-05-02T17:04:32.730Z,11.22
2019-05-02T17:05:32.717Z,11.27
2019-05-02T17:06:32.709Z,11.20
2019-05-02T17:07:34.930Z,11.25
2019-05-02T17:08:33.684Z,11.22
2019-05-02T17:09:33.541Z,11.22
2019-05-02T17:10:35.045Z,11.09
2019-05-02T17:11:35.800Z,11.15
2019-05-02T17:12:32.643Z,11.08
2019-05-02T17:13:35.629Z,11.18
2019-05-02T17:14:32.653Z,11.19
2019-05-02T17:15:35.422Z,11.19
2019-05-02T17:16:32.601Z,11.23
2019-05-02T17:17:34.871Z,11.20
2019-05-02T17:18:32.750Z,11.18
2019-05-02T17:19:34.789Z,11.23
2019-05-02T17:20:32.556Z,11.23
2019-05-02T17:21:52.248Z,11.18
2019-05-02T17:22:33.534Z,11.23
2019-05-02T17:23:32.863Z,11.27
2019-05-02T17:24:32.511Z,11.22
2019-05-02T17:25:32.586Z,11.23
2019-05-02T17:26:32.489Z,11.19
2019-05-02T17:27:32.588Z,11.20
2019-05-02T17:28:32.467Z,11.27
2019-05-02T17:29:32.564Z,11.33
2019-05-02T17:30:38.617Z,11.20
2019-05-02T17:31:33.465Z,11.36
2019-05-02T17:32:34.146Z,11.31
2019-05-02T17:33:33.441Z,11.34
2019-05-02T17:34:34.867Z,11.25
2019-05-02T17:35:32.633Z,11.23
2019-05-02T17:36:32.635Z,11.28
2019-05-02T17:37:32.603Z,11.23
2019-05-02T17:38:32.387Z,11.16
2019-05-02T17:39:32.349Z,11.22
2019-05-02T17:40:32.346Z,11.20
2019-05-02T17:41:32.328Z,11.23
2019-05-02T17:42:32.435Z,11.22
2019-05-02T17:43:32.951Z,11.20
2019-05-02T17:44:32.325Z,11.22
2019-05-02T17:45:33.570Z,11.23
2019-05-02T17:46:33.273Z,11.20
2019-05-02T17:47:36.059Z,11.16
2019-05-02T17:48:34.751Z,11.23
2019-05-02T17:49:36.682Z,11.13
2019-05-02T17:50:32.957Z,11.22
2019-05-02T17:51:35.755Z,11.20
2019-05-02T17:52:33.226Z,11.25
2019-05-02T17:53:33.777Z,11.16
2019-05-02T17:54:33.225Z,11.12
2019-05-02T17:55:40.148Z,11.19
2019-05-02T17:56:33.165Z,11.19
2019-05-02T17:57:33.337Z,11.22
2019-05-02T17:58:32.145Z,11.19
2019-05-02T17:59:36.054Z,11.11
2019-05-02T18:00:33.464Z,11.13
2019-05-02T18:01:35.025Z,11.16
2019-05-02T18:02:32.104Z,11.08
2019-05-02T18:03:35.237Z,11.11
2019-05-02T18:04:32.533Z,11.13
2019-05-02T18:05:35.656Z,11.15
2019-05-02T18:06:35.309Z,11.00
2019-05-02T18:07:36.117Z,10.98
2019-05-02T18:08:32.384Z,10.98
2019-05-02T18:09:35.022Z,10.90
2019-05-02T18:10:32.349Z,10.93
2019-05-02T18:11:36.394Z,10.90
2019-05-02T18:12:33.042Z,10.91
2019-05-02T18:13:33.986Z,10.90
2019-05-02T18:14:31.974Z,10.94
2019-05-02T18:15:34.686Z,10.83
2019-05-02T18:16:32.418Z,10.79
2019-05-02T18:17:31.934Z,10.85
2019-05-02T18:18:32.114Z,10.85
2019-05-02T18:19:31.913Z,10.78
2019-05-02T18:20:32.475Z,10.79
2019-05-02T18:21:32.355Z,10.75
2019-05-02T18:22:34.677Z,10.80
2019-05-02T18:23:32.243Z,10.75
2019-05-02T18:24:32.800Z,10.73
2019-05-02T18:25:31.861Z,10.72
2019-05-02T18:26:31.884Z,10.75
2019-05-02T18:27:31.839Z,10.79
2019-05-02T18:28:31.828Z,10.76
2019-05-02T18:29:36.249Z,10.70
2019-05-02T18:30:32.834Z,10.78
2019-05-02T18:31:34.805Z,10.75
2019-05-02T18:32:32.789Z,10.76
2019-05-02T18:33:35.845Z,10.72
2019-05-02T18:34:32.759Z,10.68
2019-05-02T18:35:32.543Z,10.70
2019-05-02T18:36:32.110Z,10.73
2019-05-02T18:37:32.558Z,10.75
2019-05-02T18:38:32.414Z,10.73
2019-05-02T18:39:34.874Z,10.78
2019-05-02T18:40:32.699Z,10.73
2019-05-02T18:41:31.901Z,10.73
2019-05-02T18:42:31.826Z,10.75
2019-05-02T18:43:36.091Z,10.72
2019-05-02T18:44:32.673Z,10.76
2019-05-02T18:45:31.947Z,10.76
2019-05-02T18:46:31.670Z,10.76
2019-05-02T18:47:33.490Z,10.70
2019-05-02T18:48:31.944Z,10.73
2019-05-02T18:49:32.133Z,10.75
2019-05-02T18:50:32.022Z,10.76
2019-05-02T18:51:32.047Z,10.78
2019-05-02T18:52:38.347Z,10.78
2019-05-02T18:53:32.785Z,10.78
2019-05-02T18:54:31.550Z,10.79
2019-05-02T18:55:31.808Z,10.73
2019-05-02T18:56:34.288Z,10.76
2019-05-02T18:57:32.503Z,10.79
2019-05-02T18:58:31.988Z,10.76
2019-05-02T18:59:32.024Z,10.79
2019-05-02T19:00:37.852Z,10.80
2019-05-02T19:01:32.456Z,10.79
2019-05-02T19:02:34.387Z,10.75
2019-05-02T19:03:33.250Z,10.78
2019-05-02T19:04:38.246Z,10.78
2019-05-02T19:05:32.654Z,10.75
2019-05-02T19:06:33.230Z,10.64
2019-05-02T19:07:35.617Z,10.73
2019-05-02T19:08:38.777Z,10.79
2019-05-02T19:09:33.176Z,10.73
2019-05-02T19:10:32.400Z,10.72
2019-05-02T19:11:35.093Z,10.75
2019-05-02T19:12:32.826Z,10.76
2019-05-02T19:13:32.696Z,10.78
2019-05-02T19:14:32.755Z,10.75
2019-05-02T19:15:34.011Z,10.78
2019-05-02T19:16:31.776Z,10.76
2019-05-02T19:17:31.334Z,10.75
2019-05-02T19:18:32.352Z,10.72
2019-05-02T19:19:32.988Z,10.75
2019-05-02T19:20:32.639Z,10.79
2019-05-02T19:21:36.065Z,10.75
2019-05-02T19:22:32.288Z,10.65
2019-05-02T19:23:32.031Z,10.75
2019-05-02T19:24:34.885Z,10.64
2019-05-02T19:25:32.188Z,10.64
2019-05-02T19:26:32.648Z,10.68
2019-05-02T19:27:32.799Z,10.62
2019-05-02T19:28:34.643Z,10.55
2019-05-02T19:29:32.165Z,10.60
2019-05-02T19:30:32.627Z,10.67
2019-05-02T19:31:32.027Z,10.55
2019-05-02T19:32:32.030Z,10.61
2019-05-02T19:33:31.885Z,10.67
2019-05-02T19:34:32.343Z,10.55
2019-05-02T19:35:32.798Z,10.57
2019-05-02T19:36:32.732Z,10.55
2019-05-02T19:37:31.632Z,10.60
2019-05-02T19:38:32.351Z,10.57
2019-05-02T19:39:32.264Z,10.62
2019-05-02T19:40:31.833Z,10.68
2019-05-02T19:41:32.063Z,10.61
2019-05-02T19:42:31.006Z,10.62
2019-05-02T19:43:32.468Z,10.58
2019-05-02T19:44:32.039Z,10.57
2019-05-02T19:45:32.720Z,10.54
2019-05-02T19:46:35.172Z,10.55
2019-05-02T19:47:31.952Z,10.70
2019-05-02T19:48:34.351Z,10.52
2019-05-02T19:49:32.910Z,10.57
2019-05-02T19:50:34.728Z,10.64
2019-05-02T19:51:31.957Z,10.68
2019-05-02T19:52:39.184Z,10.65
2019-05-02T19:53:32.366Z,10.67
2019-05-02T19:54:33.539Z,10.61
2019-05-02T19:55:32.176Z,10.70
2019-05-02T19:56:34.249Z,10.68
2019-05-02T19:57:32.383Z,10.73
2019-05-02T19:58:32.024Z,10.70
2019-05-02T19:59:32.133Z,10.68
2019-05-02T20:00:31.817Z,10.72
2019-05-02T20:01:30.820Z,10.72
2019-05-02T20:02:32.623Z,10.73
2019-05-02T20:03:32.319Z,10.62
2019-05-02T20:04:32.613Z,10.76
2019-05-02T20:05:32.267Z,10.67
2019-05-02T20:06:32.491Z,10.68
2019-05-02T20:07:32.183Z,10.65
2019-05-02T20:08:32.606Z,10.68
2019-05-02T20:09:31.874Z,10.68
2019-05-02T20:10:32.167Z,10.62
2019-05-02T20:11:33.001Z,10.67
2019-05-02T20:12:30.678Z,10.70
2019-05-02T20:13:32.712Z,10.62
2019-05-02T20:14:32.081Z,10.68
2019-05-02T20:15:32.681Z,10.65
2019-05-02T20:16:31.917Z,10.62
2019-05-02T20:17:32.589Z,10.75
2019-05-02T20:18:36.097Z,10.65
2019-05-02T20:19:34.528Z,10.67
2019-05-02T20:20:30.610Z,10.65
2019-05-02T20:21:32.543Z,10.55
2019-05-02T20:22:31.676Z,10.60
2019-05-02T20:23:34.915Z,10.72
2019-05-02T20:24:32.051Z,10.70
2019-05-02T20:25:37.491Z,10.68
2019-05-02T20:26:32.555Z,10.55
2019-05-02T20:27:32.794Z,10.62
2019-05-02T20:28:31.776Z,10.64
2019-05-02T20:29:32.150Z,10.72
2019-05-02T20:30:30.492Z,10.64
2019-05-02T20:31:32.132Z,10.68
2019-05-02T20:32:32.228Z,10.65
2019-05-02T20:33:32.446Z,10.67
2019-05-02T20:34:32.447Z,10.72
2019-05-02T20:35:31.925Z,10.64
2019-05-02T20:36:32.108Z,10.67
2019-05-02T20:37:32.373Z,10.65
2019-05-02T20:38:32.390Z,10.62
2019-05-02T20:39:31.786Z,10.65
2019-05-02T20:40:31.848Z,10.62
2019-05-02T20:41:30.379Z,10.67
2019-05-02T20:42:32.135Z,10.62
2019-05-02T20:43:32.121Z,10.64
2019-05-02T20:44:32.119Z,10.70
2019-05-02T20:45:32.149Z,10.68
2019-05-02T20:46:30.321Z,10.60
2019-05-02T20:47:30.330Z,10.68
2019-05-02T20:48:32.140Z,10.78
2019-05-02T20:49:30.296Z,10.65
2019-05-02T20:50:31.814Z,10.65
2019-05-02T20:51:31.925Z,10.64
2019-05-02T20:52:32.269Z,10.61
2019-05-02T20:53:33.417Z,10.57